Eads, CO

6:37 PM MDT on May 24, 2015 (GMT -0600)
Lamar Municipal | | Change Station
CLOSE
Current Station
Airport
Location: Lamar,
Elevation: 3704 ft
Nearby Weather Stations
Active Advisory: Tornado Watch Active Notice: Public Information Statement

Elev 3704 ft 38.07 °N, 102.69 °W | Updated 44 minutes ago

Thunderstorm
Thunderstorm
58 °F
Feels Like 58 °F
N
13
Wind Variable Wind from SSW

Today
High -- | Low -- °F
--% Chance of Precip.
Yesterday
High -- | Low -- °F
Precip. -- in
5:32 AM 8:02 PM
Waxing Crescent, 43% visible
Pressure 29.67 in
Visibility 8.0 miles
Clouds Scattered Clouds 8000 ft
Overcast 10000 ft
Dew Point 56 °F
Humidity 93%
Rainfall 0.41 in
Snow Depth Not available.
UV 1 out of 12
Pollen 7.90 out of 12
Air Quality Not available.
Flu Activity Sporadic
METAR KLAA 242353Z AUTO 20011KT 8SM SCT080 OVC100 14/13 A2975 RMK AO2 PK WND 06027/2319 WSHFT 2311 RAE45 PRESRR SLP046 P0009 60041 T01440133 10222 20128 53002 TSNO

More Conditions Fewer Conditions

Pressure 29.67 in
Visibility 8.0 miles
Clouds Scattered Clouds 8000 ft
Overcast 10000 ft
Dew Point 56 °F
Humidity 93%
Rainfall 0.41 in
Snow Depth Not available.
UV 1 out of 12
Pollen 7.90 out of 12
Air Quality Not available.
Flu Activity Sporadic
METAR KLAA 242353Z AUTO 20011KT 8SM SCT080 OVC100 14/13 A2975 RMK AO2 PK WND 06027/2319 WSHFT 2311 RAE45 PRESRR SLP046 P0009 60041 T01440133 10222 20128 53002 TSNO

More Conditions Fewer Conditions

10-Day Weather Forecast

Almanac

Astronomy

May. 24, 2015 Rise Set
Actual Time
Civil Twilight
Nautical Twilight
Astronomical Twilight
Moon
Length of Visible Light
Length of Day
Tomorrow will be .
, % of the Moon is Illuminated

Today's Extremes

State Highs State Lows

Community

WunderPhotos

Upload Photos

1,823,904 photos uploaded!

WunderBlogs® & News

Nearby

Air Quality

  Air Quality AQ Index Pollutant
Not available.

Snow Depth

Station Depth Elevation

Earthquake Activity

City Distance Mag. Time & Date
Minimum magnitude displayed is 2.5.

Coastal Water Temperatures

Place Temperature

Stations

Nearby Weather Stations

Station Location Temp. Windchill Dew Point Humidity Wind Precip. Elev Updated Type
                   
Tornado Watch
Statement as of 5:43 PM CDT on May 24, 2015

Tornado Watch 206 remains in effect until 100 am CDT for the
following locations


Co
. Colorado counties included are

Baca bent Cheyenne
Kiowa Kit Carson Prowers
Yuma